createdAt,value
2019-05-22T00:00:58.145Z,99746.13
2019-05-22T00:04:12.306Z,99739.07
2019-05-22T00:07:15.967Z,99740.88
2019-05-22T00:10:26.149Z,99744.83
2019-05-22T00:13:30.971Z,99741.41
2019-05-22T00:16:35.395Z,99753.16
2019-05-22T00:19:40.657Z,99757.56
2019-05-22T00:22:48.320Z,99755.19
2019-05-22T00:25:53.565Z,99755.70
2019-05-22T00:28:57.488Z,99758.70
2019-05-22T00:32:01.133Z,99760.87
2019-05-22T00:35:06.454Z,99753.08
2019-05-22T00:38:12.131Z,99756.25
2019-05-22T00:41:18.028Z,99757.98
2019-05-22T00:44:22.334Z,99753.88
2019-05-22T00:47:25.839Z,99749.58
2019-05-22T00:50:33.581Z,99753.70
2019-05-22T00:53:43.253Z,99746.97
2019-05-22T00:56:52.100Z,99752.67
2019-05-22T00:59:57.666Z,99757.61
2019-05-22T01:03:02.550Z,99763.43
2019-05-22T01:06:08.999Z,99759.28
2019-05-22T01:09:31.728Z,99764.80
2019-05-22T01:12:36.253Z,99757.33
2019-05-22T01:15:40.727Z,99763.16
2019-05-22T01:18:45.379Z,99760.70
2019-05-22T01:21:50.704Z,99762.06
2019-05-22T01:24:54.903Z,99772.28
2019-05-22T01:27:58.448Z,99776.08
2019-05-22T01:31:09.392Z,99768.95
2019-05-22T01:34:13.621Z,99769.66
2019-05-22T01:37:19.418Z,99768.77
2019-05-22T01:40:39.600Z,99762.53
2019-05-22T01:43:43.790Z,99773.92
2019-05-22T01:46:48.814Z,99774.83
2019-05-22T01:49:54.172Z,99776.77
2019-05-22T01:52:58.155Z,99780.05
2019-05-22T01:56:04.029Z,99781.41
2019-05-22T01:59:09.606Z,99782.41
2019-05-22T02:02:14.455Z,99786.60
2019-05-22T02:05:18.370Z,99785.14
2019-05-22T02:08:23.031Z,99792.35
2019-05-22T02:11:28.419Z,99791.67
2019-05-22T02:14:32.536Z,99787.25
2019-05-22T02:17:37.362Z,99792.81
2019-05-22T02:20:42.053Z,99791.22
2019-05-22T02:23:47.533Z,99789.48
2019-05-22T02:26:51.297Z,99801.64
2019-05-22T02:29:55.664Z,99798.46
2019-05-22T02:32:59.297Z,99797.33
2019-05-22T02:36:03.713Z,99806.38
2019-05-22T02:39:11.951Z,99803.73
2019-05-22T02:42:30.920Z,99807.06
2019-05-22T02:45:34.944Z,99801.00
2019-05-22T02:48:42.330Z,99800.98
2019-05-22T02:51:44.487Z,99815.50
2019-05-22T02:54:48.800Z,99816.94
2019-05-22T02:57:52.345Z,99822.55
2019-05-22T03:01:02.758Z,99809.13
2019-05-22T03:04:08.530Z,99830.22
2019-05-22T03:07:12.066Z,99838.20
2019-05-22T03:10:19.404Z,99830.86
2019-05-22T03:13:26.476Z,99827.59
2019-05-22T03:16:50.031Z,99831.46
2019-05-22T03:19:54.213Z,99838.91
2019-05-22T03:23:09.847Z,99839.78
2019-05-22T03:26:15.423Z,99837.75
2019-05-22T03:29:22.097Z,99845.24
2019-05-22T03:32:26.229Z,99844.03
2019-05-22T03:35:33.404Z,99847.75
2019-05-22T03:38:38.816Z,99849.78
2019-05-22T03:41:42.846Z,99856.05
2019-05-22T03:44:47.423Z,99860.59
2019-05-22T03:47:53.100Z,99859.22
2019-05-22T03:51:08.749Z,99863.00
2019-05-22T03:54:12.950Z,99872.76
2019-05-22T03:57:16.556Z,99875.30
2019-05-22T04:00:21.477Z,99888.23
2019-05-22T04:03:26.698Z,99880.83
2019-05-22T04:06:30.354Z,99886.06
2019-05-22T04:09:34.686Z,99886.95
2019-05-22T04:12:40.182Z,99884.41
2019-05-22T04:15:45.352Z,99889.16
2019-05-22T04:18:50.074Z,99888.80
2019-05-22T04:21:54.266Z,99895.50
2019-05-22T04:24:58.484Z,99895.34
2019-05-22T04:28:02.374Z,99900.65
2019-05-22T04:31:07.392Z,99908.50
2019-05-22T04:34:11.487Z,99902.81
2019-05-22T04:37:16.191Z,99903.10
2019-05-22T04:40:26.046Z,99900.75
2019-05-22T04:43:30.996Z,99900.33
2019-05-22T04:46:34.595Z,99906.59
2019-05-22T04:49:38.697Z,99914.19
2019-05-22T04:52:42.287Z,99918.06
2019-05-22T04:55:46.050Z,99914.67
2019-05-22T04:58:49.703Z,99920.30
2019-05-22T05:01:53.877Z,99916.39
2019-05-22T05:04:59.268Z,99923.98
2019-05-22T05:08:04.341Z,99929.92
2019-05-22T05:11:08.313Z,99932.21
2019-05-22T05:14:12.024Z,99917.55
2019-05-22T05:17:15.966Z,99935.17
2019-05-22T05:20:22.415Z,99931.83
2019-05-22T05:23:25.566Z,99932.18
2019-05-22T05:26:31.612Z,99938.50
2019-05-22T05:29:35.279Z,99942.00
2019-05-22T05:32:40.745Z,99915.40
2019-05-22T05:35:45.310Z,99934.84
2019-05-22T05:38:48.961Z,99937.20
2019-05-22T05:41:52.764Z,99942.06
2019-05-22T05:44:56.386Z,99939.55
2019-05-22T05:48:03.381Z,99943.72
2019-05-22T05:51:11.331Z,99949.38
2019-05-22T05:54:15.866Z,99952.49
2019-05-22T05:57:41.043Z,99955.35
2019-05-22T06:00:47.344Z,99956.88
2019-05-22T06:03:55.839Z,99961.36
2019-05-22T06:07:19.248Z,99967.44
2019-05-22T06:10:29.489Z,99973.31
2019-05-22T06:13:34.036Z,99975.85
2019-05-22T06:16:54.405Z,99982.09
2019-05-22T06:20:04.135Z,99987.61
2019-05-22T06:23:27.378Z,99985.02
2019-05-22T06:26:39.679Z,99984.34
2019-05-22T06:30:05.145Z,99989.81
2019-05-22T06:33:13.347Z,99989.36
2019-05-22T06:36:17.674Z,99995.61
2019-05-22T06:39:21.817Z,99997.27
2019-05-22T06:42:25.594Z,99995.59
2019-05-22T06:45:29.669Z,100000.70
2019-05-22T06:48:33.529Z,100005.70
2019-05-22T06:51:37.093Z,99996.22
2019-05-22T06:54:40.959Z,100013.02
2019-05-22T06:57:44.788Z,100019.19
2019-05-22T07:00:48.380Z,100016.59
2019-05-22T07:03:52.077Z,100024.82
2019-05-22T07:06:56.318Z,100024.23
2019-05-22T07:10:00.260Z,100029.95
2019-05-22T07:13:05.056Z,100030.13
2019-05-22T07:16:08.663Z,100034.64
2019-05-22T07:19:12.846Z,100038.18
2019-05-22T07:22:16.452Z,100037.22
2019-05-22T07:25:21.348Z,100041.13
2019-05-22T07:28:26.070Z,100040.91
2019-05-22T07:31:29.722Z,100046.16
2019-05-22T07:34:33.776Z,100045.94
2019-05-22T07:37:45.558Z,100045.53
2019-05-22T07:40:51.547Z,100057.33
2019-05-22T07:43:55.433Z,100057.33
2019-05-22T07:46:59.840Z,100065.38
2019-05-22T07:50:05.051Z,100068.67
2019-05-22T07:53:08.849Z,100060.80
2019-05-22T07:56:14.070Z,100066.59
2019-05-22T07:59:17.892Z,100065.19
2019-05-22T08:02:24.743Z,100064.86
2019-05-22T08:05:30.337Z,100064.14
2019-05-22T08:08:37.115Z,100065.86
2019-05-22T08:11:41.563Z,100067.33
2019-05-22T08:14:46.040Z,100067.33
2019-05-22T08:17:49.676Z,100078.65
2019-05-22T08:20:53.421Z,100084.05
2019-05-22T08:23:57.370Z,100074.80
2019-05-22T08:27:01.369Z,100075.02
2019-05-22T08:30:07.841Z,100082.30
2019-05-22T08:33:15.268Z,100076.70
2019-05-22T08:36:18.842Z,100084.13
2019-05-22T08:39:23.120Z,100092.03
2019-05-22T08:42:27.718Z,100093.09
2019-05-22T08:45:32.889Z,100084.85
2019-05-22T08:48:39.012Z,100096.53
2019-05-22T08:51:42.576Z,100095.11
2019-05-22T08:54:48.234Z,100102.95
2019-05-22T08:57:52.501Z,100111.78
2019-05-22T09:00:56.688Z,100115.13
2019-05-22T09:04:00.362Z,100109.91
2019-05-22T09:07:05.638Z,100110.52
2019-05-22T09:10:09.880Z,100109.64
2019-05-22T09:13:13.479Z,100110.94
2019-05-22T09:16:18.180Z,100113.73
2019-05-22T09:19:22.108Z,100117.75
2019-05-22T09:22:39.612Z,100124.66
2019-05-22T09:25:32.915Z,100131.53
2019-05-22T09:28:38.216Z,100128.86
2019-05-22T09:31:41.999Z,100129.40
2019-05-22T09:34:45.716Z,100128.64
2019-05-22T09:37:49.342Z,100133.66
2019-05-22T09:40:53.500Z,100131.69
2019-05-22T09:43:57.140Z,100134.44
2019-05-22T09:47:00.849Z,100136.10
2019-05-22T09:50:07.245Z,100140.55
2019-05-22T09:53:11.466Z,100138.66
2019-05-22T09:56:15.376Z,100139.94
2019-05-22T09:59:19.740Z,100143.94
2019-05-22T10:02:23.928Z,100143.92
2019-05-22T10:05:27.647Z,100146.30
2019-05-22T10:08:31.350Z,100156.51
2019-05-22T10:11:35.565Z,100153.06
2019-05-22T10:14:39.665Z,100155.65
2019-05-22T10:17:49.287Z,100155.52
2019-05-22T10:20:53.605Z,100162.72
2019-05-22T10:23:57.696Z,100168.73
2019-05-22T10:27:02.080Z,100173.91
2019-05-22T10:30:09.795Z,100175.28
2019-05-22T10:33:13.496Z,100180.48
2019-05-22T10:36:17.519Z,100191.75
2019-05-22T10:39:24.626Z,100173.70
2019-05-22T10:42:27.667Z,100179.95
2019-05-22T10:45:31.267Z,100177.05
2019-05-22T10:48:34.912Z,100187.55
2019-05-22T10:51:39.119Z,100191.53
2019-05-22T10:54:42.733Z,100195.41
2019-05-22T10:57:46.632Z,100194.19
2019-05-22T11:00:50.369Z,100197.94
2019-05-22T11:03:54.774Z,100191.59
2019-05-22T11:06:58.616Z,100202.10
2019-05-22T11:10:02.932Z,100200.41
2019-05-22T11:13:06.682Z,100188.53
2019-05-22T11:16:11.531Z,100191.72
2019-05-22T11:19:15.740Z,100193.66
2019-05-22T11:22:19.411Z,100202.02
2019-05-22T11:25:23.438Z,100198.36
2019-05-22T11:28:27.956Z,100199.73
2019-05-22T11:31:31.609Z,100204.57
2019-05-22T11:34:35.253Z,100211.84
2019-05-22T11:37:39.938Z,100210.22
2019-05-22T11:40:43.950Z,100215.09
2019-05-22T11:43:47.756Z,100206.11
2019-05-22T11:46:51.741Z,100216.61
2019-05-22T11:49:55.411Z,100214.91
2019-05-22T11:52:59.225Z,100223.50
2019-05-22T11:56:03.177Z,100211.05
2019-05-22T11:59:07.861Z,100230.37
2019-05-22T12:02:13.283Z,100224.38
2019-05-22T12:05:17.297Z,100227.48
2019-05-22T12:08:21.316Z,100230.63
2019-05-22T12:11:25.689Z,100225.89
2019-05-22T12:14:29.329Z,100224.47
2019-05-22T12:17:38.102Z,100229.94
2019-05-22T12:20:39.645Z,100235.31
2019-05-22T12:23:43.692Z,100239.92
2019-05-22T12:26:47.372Z,100230.24
2019-05-22T12:29:51.735Z,100234.93
2019-05-22T12:32:56.291Z,100240.73
2019-05-22T12:36:01.167Z,100243.91
2019-05-22T12:39:08.276Z,100252.61
2019-05-22T12:42:13.601Z,100258.37
2019-05-22T12:45:19.662Z,100254.92
2019-05-22T12:48:23.306Z,100261.45
2019-05-22T12:51:27.872Z,100260.67
2019-05-22T12:54:45.927Z,100258.84
2019-05-22T12:57:37.576Z,100263.75
2019-05-22T13:00:41.731Z,100264.55
2019-05-22T13:03:46.952Z,100264.45
2019-05-22T13:06:50.811Z,100262.16
2019-05-22T13:09:54.569Z,100274.71
2019-05-22T13:12:58.663Z,100275.38
2019-05-22T13:16:02.724Z,100278.88
2019-05-22T13:19:06.523Z,100271.45
2019-05-22T13:22:14.788Z,100279.42
2019-05-22T13:25:20.309Z,100287.77
2019-05-22T13:28:25.525Z,100284.55
2019-05-22T13:31:29.511Z,100280.34
2019-05-22T13:34:33.198Z,100289.09
2019-05-22T13:37:36.754Z,100288.16
2019-05-22T13:40:40.613Z,100292.66
2019-05-22T13:43:44.575Z,100294.27
2019-05-22T13:46:48.380Z,100295.39
2019-05-22T13:49:52.283Z,100302.08
2019-05-22T13:52:56.420Z,100306.72
2019-05-22T13:56:01.194Z,100301.95
2019-05-22T13:59:05.793Z,100309.03
2019-05-22T14:02:09.519Z,100314.45
2019-05-22T14:05:13.957Z,100314.78
2019-05-22T14:08:18.356Z,100313.02
2019-05-22T14:11:22.713Z,100327.78
2019-05-22T14:14:26.499Z,100317.12
2019-05-22T14:17:31.347Z,100327.81
2019-05-22T14:20:35.088Z,100325.70
2019-05-22T14:23:39.399Z,100328.40
2019-05-22T14:26:43.035Z,100328.80
2019-05-22T14:29:46.706Z,100323.81
2019-05-22T14:32:50.254Z,100319.23
2019-05-22T14:35:55.812Z,100317.89
2019-05-22T14:38:59.804Z,100317.37
2019-05-22T14:42:03.934Z,100319.16
2019-05-22T14:45:13.922Z,100313.19
2019-05-22T14:48:17.828Z,100317.81
2019-05-22T14:51:23.473Z,100320.11
2019-05-22T14:54:27.242Z,100319.19
2019-05-22T14:57:31.668Z,100320.27
2019-05-22T15:00:36.635Z,100321.86
2019-05-22T15:03:40.630Z,100330.14
2019-05-22T15:06:44.320Z,100328.16
2019-05-22T15:09:47.913Z,100328.59
2019-05-22T15:12:51.701Z,100329.18
2019-05-22T15:15:55.424Z,100318.09
2019-05-22T15:18:59.015Z,100325.81
2019-05-22T15:22:02.667Z,100331.55
2019-05-22T15:25:10.851Z,100319.95
2019-05-22T15:28:14.413Z,100329.76
2019-05-22T15:31:18.047Z,100332.23
2019-05-22T15:34:24.924Z,100338.72
2019-05-22T15:44:45.484Z,100341.11
2019-05-22T15:48:02.398Z,100320.39
2019-05-22T15:52:44.261Z,100339.36
2019-05-22T15:54:23.856Z,100334.03
2019-05-22T15:57:25.775Z,100337.63
2019-05-22T16:00:35.750Z,100345.09
2019-05-22T16:03:42.741Z,100348.09
2019-05-22T16:06:56.097Z,100348.81
2019-05-22T16:09:59.981Z,100322.45
2019-05-22T16:13:06.364Z,100352.73
2019-05-22T16:16:11.961Z,100353.51
2019-05-22T16:19:16.176Z,100358.48
2019-05-22T16:22:22.880Z,100353.20
2019-05-22T16:25:27.591Z,100359.97
2019-05-22T16:28:36.055Z,100360.95
2019-05-22T16:31:49.942Z,100364.12
2019-05-22T16:34:55.077Z,100360.11
2019-05-22T16:37:58.647Z,100362.92
2019-05-22T16:41:02.331Z,100357.97
2019-05-22T16:44:06.306Z,100366.59
2019-05-22T16:47:10.966Z,100366.40
2019-05-22T16:50:18.498Z,100366.59
2019-05-22T16:53:24.665Z,100362.36
2019-05-22T16:56:29.057Z,100370.24
2019-05-22T16:59:36.713Z,100372.68
2019-05-22T17:02:40.638Z,100372.13
2019-05-22T17:05:44.674Z,100376.17
2019-05-22T17:08:49.901Z,100366.05
2019-05-22T17:11:54.021Z,100373.44
2019-05-22T17:14:57.636Z,100367.13
2019-05-22T17:18:01.297Z,100374.27
2019-05-22T17:21:06.351Z,100374.63
2019-05-22T17:24:13.125Z,100369.55
2019-05-22T17:27:17.698Z,100374.05
2019-05-22T17:30:22.978Z,100371.02
2019-05-22T17:33:27.318Z,100373.32
2019-05-22T17:36:31.863Z,100377.14
2019-05-22T17:39:38.253Z,100381.17
2019-05-22T17:42:42.636Z,100377.02
2019-05-22T17:45:46.877Z,100378.92
2019-05-22T17:48:52.006Z,100381.61
2019-05-22T17:51:55.884Z,100378.48
2019-05-22T17:55:01.615Z,100379.34
2019-05-22T17:58:06.591Z,100374.14
2019-05-22T18:01:11.335Z,100380.33
2019-05-22T18:04:15.112Z,100385.91
2019-05-22T18:07:22.478Z,100389.25
2019-05-22T18:10:26.847Z,100395.32
2019-05-22T18:13:31.126Z,100393.48
2019-05-22T18:16:35.170Z,100398.52
2019-05-22T18:19:38.954Z,100397.95
2019-05-22T18:22:42.688Z,100398.02
2019-05-22T18:25:48.179Z,100397.55
2019-05-22T18:28:51.837Z,100403.72
2019-05-22T18:31:55.921Z,100414.81
2019-05-22T18:34:59.639Z,100413.12
2019-05-22T18:38:04.780Z,100422.91
2019-05-22T18:41:08.749Z,100417.44
2019-05-22T18:44:14.146Z,100421.33
2019-05-22T18:47:21.583Z,100429.97
2019-05-22T18:50:24.914Z,100432.22
2019-05-22T18:53:29.516Z,100440.11
2019-05-22T18:56:34.787Z,100442.47
2019-05-22T18:59:38.370Z,100443.64
2019-05-22T19:02:42.310Z,100446.78
2019-05-22T19:05:48.737Z,100452.35
2019-05-22T19:08:58.995Z,100455.43
2019-05-22T19:12:07.270Z,100460.70
2019-05-22T19:15:13.289Z,100464.71
2019-05-22T19:18:16.974Z,100459.12
2019-05-22T19:21:20.503Z,100457.98
2019-05-22T19:24:24.086Z,100461.53
2019-05-22T19:27:27.654Z,100462.61
2019-05-22T19:30:31.298Z,100470.27
2019-05-22T19:33:36.583Z,100476.91
2019-05-22T19:36:40.245Z,100479.19
2019-05-22T19:39:43.832Z,100484.77
2019-05-22T19:42:47.643Z,100485.18
2019-05-22T19:45:51.659Z,100481.70
2019-05-22T19:48:55.813Z,100481.78
2019-05-22T19:51:59.718Z,100475.50
2019-05-22T19:55:06.968Z,100481.30
2019-05-22T19:58:10.781Z,100483.70
2019-05-22T20:01:14.399Z,100486.97
2019-05-22T20:04:18.326Z,100484.98
2019-05-22T20:07:22.359Z,100482.03
2019-05-22T20:10:29.275Z,100483.61
2019-05-22T20:13:33.491Z,100490.02
2019-05-22T20:16:39.559Z,100488.66
2019-05-22T20:19:43.802Z,100490.53
2019-05-22T20:22:53.424Z,100485.72
2019-05-22T20:25:57.102Z,100488.66
2019-05-22T20:29:01.546Z,100484.64
2019-05-22T20:32:06.585Z,100487.29
2019-05-22T20:35:11.358Z,100486.34
2019-05-22T20:38:17.053Z,100479.59
2019-05-22T20:41:21.301Z,100484.64
2019-05-22T20:44:25.201Z,100490.44
2019-05-22T20:47:31.892Z,100477.94
2019-05-22T20:50:40.489Z,100481.17
2019-05-22T20:53:54.118Z,100479.17
2019-05-22T20:56:55.210Z,100477.61
2019-05-22T21:00:02.271Z,100480.13
2019-05-22T21:03:06.284Z,100474.13
2019-05-22T21:06:14.399Z,100475.16
2019-05-22T21:09:19.777Z,100474.00
2019-05-22T21:12:25.668Z,100478.73
2019-05-22T21:15:31.289Z,100481.02
2019-05-22T21:18:38.451Z,100479.45
2019-05-22T21:21:42.379Z,100486.39
2019-05-22T21:24:46.299Z,100481.87
2019-05-22T21:27:50.718Z,100479.95
2019-05-22T21:30:56.861Z,100491.08
2019-05-22T21:34:00.521Z,100508.92
2019-05-22T21:37:05.560Z,100499.34
2019-05-22T21:40:09.535Z,100504.17
2019-05-22T21:43:15.344Z,100501.23
2019-05-22T21:46:25.666Z,100510.45
2019-05-22T21:49:29.762Z,100504.23
2019-05-22T21:52:36.149Z,100507.83
2019-05-22T21:55:46.999Z,100513.08
2019-05-22T21:58:51.172Z,100516.44
2019-05-22T22:02:02.804Z,100521.70
2019-05-22T22:05:11.237Z,100525.87
2019-05-22T22:08:15.333Z,100527.61
2019-05-22T22:11:21.801Z,100526.05
2019-05-22T22:14:26.123Z,100526.34
2019-05-22T22:17:31.116Z,100528.11
2019-05-22T22:20:35.153Z,100533.44
2019-05-22T22:23:40.166Z,100529.95
2019-05-22T22:26:51.936Z,100534.34
2019-05-22T22:29:57.218Z,100530.98
2019-05-22T22:33:10.551Z,100530.41
2019-05-22T22:36:17.302Z,100533.20
2019-05-22T22:39:21.672Z,100533.20
2019-05-22T22:42:29.248Z,100536.73
2019-05-22T22:45:42.189Z,100535.09
2019-05-22T22:48:48.418Z,100533.23
2019-05-22T22:51:53.222Z,100535.39
2019-05-22T22:54:58.464Z,100533.05
2019-05-22T22:58:16.527Z,100532.81
2019-05-22T23:01:18.374Z,100538.66
2019-05-22T23:04:24.486Z,100539.45
2019-05-22T23:07:30.465Z,100532.58
2019-05-22T23:10:34.458Z,100548.25
2019-05-22T23:13:38.429Z,100549.95
2019-05-22T23:16:43.750Z,100547.72
2019-05-22T23:19:47.245Z,100552.28
2019-05-22T23:22:49.676Z,100557.03
2019-05-22T23:25:53.576Z,100555.80
2019-05-22T23:28:59.115Z,100564.48
2019-05-22T23:32:05.332Z,100562.20
2019-05-22T23:35:11.129Z,100565.30
2019-05-22T23:38:15.486Z,100567.84
2019-05-22T23:41:20.275Z,100569.05
2019-05-22T23:44:25.243Z,100572.53
2019-05-22T23:47:30.475Z,100572.19
2019-05-22T23:50:36.795Z,100570.11
2019-05-22T23:53:42.221Z,100567.65
2019-05-22T23:56:45.937Z,100567.38
2019-05-22T23:59:52.346Z,100571.45
